La Marque, Texas
Current Conditions -  °F | °C
As of 4:52 AM on Wednesday 26 Nov 2014 (Local Time) from KGLS Reporting Station
Clear Clear  
Wind Chill: 56°   Ceiling: Unl
Heat Index: 56°   Visibility: 10mi
Dew Point: 48°   Wind: 7mph
Humidity: 75%   Direction: 210°SSW
Pressure: 30.23"   Gusts: NA
Location:  29.37°N, 94.97°W
Report Text: KGLS 261052Z AUTO 21006KT 10SM CLR 13/09 A3023 RMK AO2 SLP236 T01330089
Loading
Personal Weather Stations






























Interactive Weather Map New forecast layout! Learn more

10-Day Weather Forecast

Advertisements
Track Severe Weather on mobile